Terminal Aerodrome Forecast
Issued by NWS

Home | Current Version | Previous Version | Text Only | Print | Product List | Glossary On
Versions: 1 2 3 4 5 6 7 8 9 10 11 12 13
000
FTUS42 KMLB 251125
TAFLEE
TAF
KLEE 251125Z 2512/2612 13005KT P6SM SCT250
     FM251400 13007KT P6SM FEW030 SCT250
     FM251800 14010KT P6SM VCSH SCT030 BKN060
      TEMPO 2519/2523 3SM TSRA BKN025CB OVC040
     FM252300 13010KT P6SM VCSH SCT040 BKN080 OVC120
     FM260200 14004KT P6SM VCSH SCT040 OVC080=

USA.gov is the U.S. government's official web portal to all federal, state and local government web resources and services.